createdAt,value
2022-08-05T00:00:32.127Z,19.60
2022-08-05T00:02:58.779Z,19.70
2022-08-05T00:05:27.222Z,19.80
2022-08-05T00:08:34.395Z,19.70
2022-08-05T00:11:20.647Z,19.60
2022-08-05T00:13:57.217Z,19.50
2022-08-05T00:16:35.879Z,19.50
2022-08-05T00:19:18.456Z,19.60
2022-08-05T00:21:48.762Z,19.40
2022-08-05T00:24:18.892Z,19.30
2022-08-05T00:26:52.828Z,19.20
2022-08-05T00:29:22.711Z,19.20
2022-08-05T00:32:13.087Z,19.20
2022-08-05T00:35:03.424Z,19.10
2022-08-05T00:37:51.222Z,19.20
2022-08-05T00:40:26.780Z,19.10
2022-08-05T00:43:01.757Z,19.20
2022-08-05T00:45:38.548Z,19.20
2022-08-05T00:48:10.535Z,19.00
2022-08-05T00:50:44.043Z,19.00
2022-08-05T00:54:01.084Z,18.80
2022-08-05T00:56:29.398Z,18.70
2022-08-05T00:58:57.091Z,18.80
2022-08-05T01:01:42.043Z,18.90
2022-08-05T01:04:13.553Z,18.80
2022-08-05T01:06:40.933Z,18.80
2022-08-05T01:09:10.189Z,18.90
2022-08-05T01:11:40.089Z,18.90
2022-08-05T01:14:47.018Z,18.90
2022-08-05T01:17:53.979Z,18.80
2022-08-05T01:21:23.176Z,18.80
2022-08-05T01:27:00.767Z,18.80
2022-08-05T01:29:49.495Z,18.70
2022-08-05T01:32:24.923Z,18.60
2022-08-05T01:35:10.959Z,18.50
2022-08-05T01:38:26.994Z,18.60
2022-08-05T01:40:58.834Z,18.60
2022-08-05T01:43:27.781Z,18.70
2022-08-05T01:45:57.211Z,18.60
2022-08-05T01:48:27.625Z,18.50
2022-08-05T01:50:56.226Z,18.60
2022-08-05T01:53:57.742Z,18.60
2022-08-05T01:58:10.549Z,18.60
2022-08-05T02:00:50.605Z,18.60
2022-08-05T02:03:31.583Z,19.10
2022-08-05T02:06:03.535Z,19.20
2022-08-05T02:08:58.613Z,19.00
2022-08-05T02:11:36.935Z,18.80
2022-08-05T02:14:20.220Z,18.80
2022-08-05T02:16:53.854Z,19.00
2022-08-05T02:19:48.982Z,19.20
2022-08-05T02:23:01.603Z,19.40
2022-08-05T02:25:49.239Z,19.10
2022-08-05T02:28:29.279Z,18.70
2022-08-05T02:31:21.365Z,18.60
2022-08-05T02:33:58.082Z,18.50
2022-08-05T02:36:31.234Z,18.40
2022-08-05T02:39:01.195Z,18.20
2022-08-05T02:41:43.430Z,18.40
2022-08-05T02:44:29.854Z,18.50
2022-08-05T02:47:00.874Z,18.60
2022-08-05T02:49:36.905Z,18.80
2022-08-05T02:52:09.890Z,18.90
2022-08-05T02:54:42.723Z,19.00
2022-08-05T02:58:19.735Z,18.90
2022-08-05T03:00:47.594Z,18.60
2022-08-05T03:03:19.101Z,18.50
2022-08-05T03:06:53.705Z,18.20
2022-08-05T03:09:36.350Z,18.20
2022-08-05T03:12:06.398Z,18.30
2022-08-05T03:14:34.926Z,18.50
2022-08-05T03:17:12.486Z,18.40
2022-08-05T03:19:41.906Z,18.30
2022-08-05T03:22:16.402Z,18.30
2022-08-05T03:24:47.072Z,18.20
2022-08-05T03:27:14.488Z,18.20
2022-08-05T03:29:44.708Z,18.00
2022-08-05T03:32:34.045Z,18.00
2022-08-05T03:35:02.152Z,17.90
2022-08-05T03:37:31.339Z,17.90
2022-08-05T03:40:13.806Z,18.00
2022-08-05T03:42:52.386Z,18.00
2022-08-05T03:45:21.672Z,17.90
2022-08-05T03:47:50.107Z,17.90
2022-08-05T03:50:16.869Z,17.90
2022-08-05T03:55:53.789Z,17.90
2022-08-05T03:57:42.450Z,17.90
2022-08-05T04:00:15.938Z,17.80
2022-08-05T04:02:57.807Z,18.00
2022-08-05T04:05:33.205Z,18.00
2022-08-05T04:08:14.672Z,18.00
2022-08-05T04:10:58.577Z,18.00
2022-08-05T04:13:26.251Z,18.10
2022-08-05T04:16:16.775Z,18.20
2022-08-05T04:18:54.198Z,18.30
2022-08-05T04:22:08.467Z,18.30
2022-08-05T04:24:43.875Z,18.50
2022-08-05T04:27:15.231Z,18.90
2022-08-05T04:29:42.065Z,19.10
2022-08-05T04:32:09.384Z,19.00
2022-08-05T04:34:42.337Z,18.80
2022-08-05T04:37:09.729Z,18.70
2022-08-05T04:39:37.444Z,18.60
2022-08-05T04:42:06.553Z,18.50
2022-08-05T04:44:33.195Z,18.60
2022-08-05T04:47:09.068Z,18.80
2022-08-05T04:50:01.422Z,19.10
2022-08-05T04:52:28.831Z,19.10
2022-08-05T04:54:57.079Z,19.30
2022-08-05T04:57:28.965Z,19.50
2022-08-05T04:59:56.979Z,19.60
2022-08-05T05:02:41.166Z,19.80
2022-08-05T05:05:16.605Z,20.10
2022-08-05T05:07:56.639Z,20.30
2022-08-05T05:10:29.617Z,20.50
2022-08-05T05:12:56.798Z,20.50
2022-08-05T05:15:54.424Z,20.70
2022-08-05T05:18:28.431Z,20.80
2022-08-05T05:21:01.057Z,20.90
2022-08-05T05:23:38.842Z,21.00
2022-08-05T05:26:32.739Z,21.00
2022-08-05T05:28:59.614Z,21.20
2022-08-05T05:31:26.106Z,21.60
2022-08-05T05:33:59.346Z,21.90
2022-08-05T05:36:29.672Z,22.20
2022-08-05T05:38:56.790Z,22.30
2022-08-05T05:41:23.671Z,22.50
2022-08-05T05:43:57.502Z,22.70
2022-08-05T05:46:26.703Z,22.90
2022-08-05T05:48:53.309Z,23.10
2022-08-05T05:51:25.603Z,23.30
2022-08-05T05:53:58.665Z,23.20
2022-08-05T05:56:33.047Z,23.30
2022-08-05T05:59:05.696Z,23.40
2022-08-05T06:01:40.473Z,23.60
2022-08-05T06:04:23.997Z,23.70
2022-08-05T06:06:50.556Z,24.10
2022-08-05T06:09:27.443Z,24.30
2022-08-05T06:12:27.120Z,24.40
2022-08-05T06:14:53.850Z,24.70
2022-08-05T06:17:22.513Z,24.70
2022-08-05T06:19:57.001Z,24.90
2022-08-05T06:22:33.528Z,25.10
2022-08-05T06:25:24.994Z,25.40
2022-08-05T06:28:27.414Z,25.60
2022-08-05T06:30:55.311Z,25.90
2022-08-05T06:33:33.325Z,26.10
2022-08-05T06:36:37.461Z,26.10
2022-08-05T06:39:27.373Z,26.10
2022-08-05T06:41:57.417Z,26.30
2022-08-05T06:44:26.051Z,26.40
2022-08-05T06:46:54.492Z,26.60
2022-08-05T06:50:01.458Z,26.70
2022-08-05T06:52:36.942Z,26.80
2022-08-05T06:55:06.663Z,27.10
2022-08-05T06:58:02.824Z,27.20
2022-08-05T07:00:37.968Z,27.30
2022-08-05T07:03:09.828Z,27.50
2022-08-05T07:05:37.305Z,27.90
2022-08-05T07:08:05.122Z,28.20
2022-08-05T07:10:32.706Z,28.40
2022-08-05T07:13:17.855Z,28.40
2022-08-05T07:17:57.077Z,28.50
2022-08-05T07:20:33.276Z,28.70
2022-08-05T07:23:00.730Z,28.70
2022-08-05T07:25:55.069Z,28.90
2022-08-05T07:28:26.283Z,28.90
2022-08-05T07:30:54.853Z,29.10
2022-08-05T07:33:36.971Z,29.30
2022-08-05T07:36:20.054Z,29.50
2022-08-05T07:38:47.682Z,29.60
2022-08-05T07:42:14.353Z,29.60
2022-08-05T07:44:42.371Z,29.70
2022-08-05T07:47:14.823Z,29.80
2022-08-05T07:49:43.577Z,29.90
2022-08-05T07:52:21.311Z,29.80
2022-08-05T07:54:50.497Z,29.80
2022-08-05T07:57:51.269Z,29.90
2022-08-05T08:00:25.541Z,30.20
2022-08-05T08:03:15.219Z,30.40
2022-08-05T08:05:49.317Z,30.40
2022-08-05T08:08:19.753Z,30.60
2022-08-05T08:10:48.645Z,30.70
2022-08-05T08:13:21.735Z,30.80
2022-08-05T08:16:49.850Z,30.80
2022-08-05T08:20:10.848Z,31.00
2022-08-05T08:23:11.711Z,31.40
2022-08-05T08:26:30.267Z,31.40
2022-08-05T08:29:21.814Z,31.60
2022-08-05T08:32:35.494Z,31.40
2022-08-05T08:35:13.640Z,31.30
2022-08-05T08:37:40.469Z,31.40
2022-08-05T08:40:12.302Z,31.50
2022-08-05T08:42:50.787Z,31.60
2022-08-05T08:45:26.806Z,31.70
2022-08-05T08:48:12.621Z,31.90
2022-08-05T08:51:30.610Z,32.00
2022-08-05T08:54:31.739Z,31.90
2022-08-05T08:57:00.805Z,32.20
2022-08-05T08:59:33.491Z,32.30
2022-08-05T09:02:05.989Z,32.10
2022-08-05T09:04:57.922Z,32.10
2022-08-05T09:07:28.758Z,32.20
2022-08-05T09:09:56.191Z,32.40
2022-08-05T09:12:27.349Z,32.50
2022-08-05T09:14:59.500Z,32.50
2022-08-05T09:17:42.518Z,32.50
2022-08-05T09:20:12.018Z,32.60
2022-08-05T09:23:09.235Z,32.50
2022-08-05T09:26:03.367Z,32.40
2022-08-05T09:28:34.497Z,32.50
2022-08-05T09:32:35.962Z,32.50
2022-08-05T09:35:26.747Z,32.30
2022-08-05T09:38:12.433Z,32.60
2022-08-05T09:40:52.221Z,32.80
2022-08-05T09:43:41.345Z,32.70
2022-08-05T09:46:32.401Z,32.70
2022-08-05T09:49:08.064Z,32.80
2022-08-05T09:51:48.770Z,32.70
2022-08-05T09:54:16.485Z,32.80
2022-08-05T09:56:57.599Z,32.80
2022-08-05T09:59:28.031Z,32.80
2022-08-05T10:01:58.032Z,32.90
2022-08-05T10:04:38.630Z,32.90
2022-08-05T10:07:20.598Z,33.10
2022-08-05T10:10:48.323Z,33.20
2022-08-05T10:13:47.699Z,33.20
2022-08-05T10:16:41.797Z,33.10
2022-08-05T10:19:23.473Z,33.10
2022-08-05T10:21:58.822Z,33.30
2022-08-05T10:24:27.102Z,33.30
2022-08-05T10:26:55.864Z,33.30
2022-08-05T10:30:41.878Z,33.30
2022-08-05T10:33:59.699Z,33.50
2022-08-05T10:36:27.763Z,33.40
2022-08-05T10:39:11.817Z,33.40
2022-08-05T10:42:32.587Z,33.60
2022-08-05T10:45:20.807Z,33.60
2022-08-05T10:48:31.907Z,33.80
2022-08-05T10:51:21.751Z,33.80
2022-08-05T10:54:01.630Z,33.70
2022-08-05T10:56:55.143Z,33.90
2022-08-05T11:00:03.741Z,33.80
2022-08-05T11:02:38.776Z,33.70
2022-08-05T11:05:10.466Z,33.60
2022-08-05T11:08:02.582Z,33.60
2022-08-05T11:10:38.038Z,33.60
2022-08-05T11:13:54.907Z,33.70
2022-08-05T11:16:33.688Z,33.80
2022-08-05T11:20:17.484Z,33.90
2022-08-05T11:22:49.795Z,33.90
2022-08-05T11:26:05.039Z,33.90
2022-08-05T11:28:46.586Z,33.90
2022-08-05T11:31:57.404Z,33.80
2022-08-05T11:34:39.866Z,33.90
2022-08-05T11:38:30.793Z,33.90
2022-08-05T11:41:56.506Z,33.90
2022-08-05T11:44:54.147Z,34.00
2022-08-05T11:47:49.011Z,34.20
2022-08-05T11:50:17.460Z,34.10
2022-08-05T11:52:46.100Z,34.10
2022-08-05T11:55:15.560Z,34.10
2022-08-05T11:58:10.385Z,34.20
2022-08-05T12:00:39.309Z,34.30
2022-08-05T12:03:28.710Z,34.20
2022-08-05T12:06:03.365Z,34.10
2022-08-05T12:08:47.911Z,34.20
2022-08-05T12:11:23.258Z,34.20
2022-08-05T12:14:04.121Z,34.30
2022-08-05T12:16:38.524Z,34.30
2022-08-05T12:19:10.365Z,34.40
2022-08-05T12:23:06.567Z,34.50
2022-08-05T12:25:57.581Z,34.30
2022-08-05T12:28:36.744Z,34.20
2022-08-05T12:31:04.885Z,34.20
2022-08-05T12:33:36.280Z,34.10
2022-08-05T12:36:08.104Z,34.20
2022-08-05T12:38:39.727Z,34.10
2022-08-05T12:41:13.491Z,34.00
2022-08-05T12:44:00.056Z,34.10
2022-08-05T12:46:31.428Z,34.20
2022-08-05T12:49:13.032Z,34.30
2022-08-05T12:53:37.018Z,34.40
2022-08-05T12:56:35.395Z,34.30
2022-08-05T13:00:08.202Z,34.40
2022-08-05T13:03:59.348Z,34.50
2022-08-05T13:06:26.442Z,34.50
2022-08-05T13:08:53.045Z,34.50
2022-08-05T13:12:01.179Z,34.50
2022-08-05T13:14:46.325Z,34.30
2022-08-05T13:17:42.269Z,34.40
2022-08-05T13:20:14.861Z,34.60
2022-08-05T13:22:51.630Z,34.60
2022-08-05T13:25:22.008Z,34.70
2022-08-05T13:28:19.761Z,34.60
2022-08-05T13:30:46.291Z,34.80
2022-08-05T13:34:23.461Z,34.70
2022-08-05T13:36:53.372Z,34.60
2022-08-05T13:40:14.604Z,34.50
2022-08-05T13:42:46.812Z,34.50
2022-08-05T13:45:13.551Z,34.20
2022-08-05T13:48:09.486Z,33.90
2022-08-05T13:51:36.490Z,33.50
2022-08-05T13:54:11.962Z,33.40
2022-08-05T13:56:51.132Z,33.50
2022-08-05T13:59:24.217Z,33.70
2022-08-05T14:01:57.405Z,33.80
2022-08-05T14:04:51.621Z,34.00
2022-08-05T14:07:25.742Z,34.10
2022-08-05T14:10:28.124Z,34.20
2022-08-05T14:12:57.377Z,34.10
2022-08-05T14:16:08.237Z,34.00
2022-08-05T14:18:37.972Z,33.80
2022-08-05T14:22:07.310Z,33.80
2022-08-05T14:24:39.091Z,34.00
2022-08-05T14:27:17.527Z,34.00
2022-08-05T14:29:44.648Z,33.80
2022-08-05T14:32:27.214Z,33.80
2022-08-05T14:34:56.868Z,33.70
2022-08-05T14:37:44.764Z,33.60
2022-08-05T14:40:14.210Z,33.50
2022-08-05T14:42:43.644Z,33.30
2022-08-05T14:45:10.897Z,33.10
2022-08-05T14:48:03.726Z,32.90
2022-08-05T14:50:33.182Z,32.70
2022-08-05T14:53:06.658Z,32.70
2022-08-05T14:55:39.950Z,32.60
2022-08-05T14:58:10.995Z,32.40
2022-08-05T15:00:58.430Z,32.30
2022-08-05T15:03:33.809Z,32.10
2022-08-05T15:06:07.482Z,31.80
2022-08-05T15:08:59.118Z,31.70
2022-08-05T15:11:51.983Z,31.60
2022-08-05T15:14:35.704Z,31.40
2022-08-05T15:17:44.563Z,31.10
2022-08-05T15:20:18.282Z,30.90
2022-08-05T15:22:46.702Z,30.80
2022-08-05T15:25:22.492Z,30.60
2022-08-05T15:27:52.226Z,30.50
2022-08-05T15:30:21.319Z,30.40
2022-08-05T15:32:49.041Z,30.30
2022-08-05T15:35:15.636Z,30.30
2022-08-05T15:38:33.086Z,30.20
2022-08-05T15:41:23.358Z,30.20
2022-08-05T15:43:52.326Z,30.20
2022-08-05T15:46:24.007Z,30.00
2022-08-05T15:48:54.360Z,29.90
2022-08-05T15:52:13.901Z,29.80
2022-08-05T15:54:43.703Z,29.90
2022-08-05T15:57:11.063Z,29.90
2022-08-05T15:59:39.288Z,29.90
2022-08-05T16:02:14.865Z,30.00
2022-08-05T16:04:52.106Z,30.00
2022-08-05T16:07:22.943Z,30.00
2022-08-05T16:09:49.725Z,30.00
2022-08-05T16:12:17.261Z,29.80
2022-08-05T16:14:46.413Z,29.50
2022-08-05T16:17:13.525Z,29.40
2022-08-05T16:20:04.927Z,29.40
2022-08-05T16:22:38.765Z,29.40
2022-08-05T16:25:09.735Z,29.40
2022-08-05T16:27:47.055Z,29.40
2022-08-05T16:30:28.756Z,29.10
2022-08-05T16:32:57.022Z,29.00
2022-08-05T16:35:27.895Z,29.10
2022-08-05T16:38:16.289Z,29.00
2022-08-05T16:40:59.799Z,29.00
2022-08-05T16:43:31.205Z,28.70
2022-08-05T16:46:06.099Z,28.60
2022-08-05T16:48:39.620Z,28.80
2022-08-05T16:51:09.105Z,28.90
2022-08-05T16:54:06.270Z,28.70
2022-08-05T16:56:41.891Z,28.80
2022-08-05T16:59:09.715Z,28.90
2022-08-05T17:01:53.008Z,29.00
2022-08-05T17:04:21.087Z,29.00
2022-08-05T17:06:53.171Z,29.00
2022-08-05T17:09:20.522Z,28.90
2022-08-05T17:11:48.756Z,28.90
2022-08-05T17:14:34.114Z,28.80
2022-08-05T17:17:01.152Z,28.60
2022-08-05T17:19:29.247Z,28.30
2022-08-05T17:21:57.704Z,28.20
2022-08-05T17:24:36.498Z,28.00
2022-08-05T17:27:05.670Z,27.80
2022-08-05T17:29:39.960Z,27.80
2022-08-05T17:32:17.185Z,27.70
2022-08-05T17:34:47.775Z,27.70
2022-08-05T17:42:32.151Z,27.60
2022-08-05T17:45:00.460Z,27.50
2022-08-05T17:47:36.714Z,27.40
2022-08-05T17:50:11.335Z,27.10
2022-08-05T17:52:53.326Z,27.10
2022-08-05T17:55:22.283Z,26.90
2022-08-05T17:57:50.306Z,26.90
2022-08-05T18:00:17.237Z,26.90
2022-08-05T18:02:46.472Z,26.90
2022-08-05T18:05:13.669Z,26.90
2022-08-05T18:07:43.829Z,27.00
2022-08-05T18:10:20.516Z,27.30
2022-08-05T18:12:49.263Z,27.40
2022-08-05T18:15:15.895Z,27.40
2022-08-05T18:17:59.229Z,27.30
2022-08-05T18:20:31.845Z,27.20
2022-08-05T18:23:11.342Z,27.20
2022-08-05T18:25:45.176Z,27.10
2022-08-05T18:28:16.012Z,27.00
2022-08-05T18:30:50.958Z,27.10
2022-08-05T18:33:22.977Z,27.00
2022-08-05T18:36:04.299Z,27.10
2022-08-05T18:38:35.986Z,27.00
2022-08-05T18:41:58.535Z,26.90
2022-08-05T18:44:34.662Z,26.80
2022-08-05T18:47:03.256Z,26.70
2022-08-05T18:49:58.404Z,26.40
2022-08-05T18:52:32.971Z,26.30
2022-08-05T18:55:02.348Z,26.20
2022-08-05T18:57:42.976Z,26.00
2022-08-05T19:00:20.750Z,26.00
2022-08-05T19:02:52.166Z,26.20
2022-08-05T19:06:11.945Z,26.40
2022-08-05T19:08:48.425Z,26.50
2022-08-05T19:11:15.761Z,26.40
2022-08-05T19:13:49.922Z,26.40
2022-08-05T19:16:29.394Z,26.40
2022-08-05T19:18:59.715Z,26.60
2022-08-05T19:21:27.553Z,26.60
2022-08-05T19:24:06.441Z,26.60
2022-08-05T19:26:36.600Z,26.50
2022-08-05T19:29:20.685Z,26.40
2022-08-05T19:31:51.217Z,26.30
2022-08-05T19:34:18.596Z,26.40
2022-08-05T19:36:45.395Z,26.40
2022-08-05T19:39:13.993Z,26.40
2022-08-05T19:42:06.263Z,26.40
2022-08-05T19:44:38.731Z,26.20
2022-08-05T19:47:12.349Z,26.00
2022-08-05T19:49:43.831Z,25.80
2022-08-05T19:52:30.300Z,25.60
2022-08-05T19:56:14.154Z,25.60
2022-08-05T19:58:56.135Z,25.60
2022-08-05T20:01:28.338Z,25.70
2022-08-05T20:03:55.236Z,25.60
2022-08-05T20:06:28.744Z,25.60
2022-08-05T20:08:56.015Z,25.70
2022-08-05T20:11:23.852Z,25.70
2022-08-05T20:13:58.475Z,25.70
2022-08-05T20:16:38.375Z,25.60
2022-08-05T20:19:05.405Z,25.60
2022-08-05T20:21:32.028Z,25.60
2022-08-05T20:23:59.897Z,25.60
2022-08-05T20:26:26.876Z,25.60
2022-08-05T20:28:57.388Z,25.40
2022-08-05T20:31:37.092Z,25.40
2022-08-05T20:34:17.863Z,25.30
2022-08-05T20:36:44.403Z,25.30
2022-08-05T20:39:13.447Z,25.20
2022-08-05T20:41:45.294Z,25.10
2022-08-05T20:44:29.086Z,25.10
2022-08-05T20:47:03.281Z,25.00
2022-08-05T20:49:30.391Z,24.90
2022-08-05T20:52:04.959Z,24.80
2022-08-05T20:54:42.873Z,24.80
2022-08-05T20:57:41.894Z,24.70
2022-08-05T21:00:40.619Z,24.80
2022-08-05T21:03:11.362Z,24.90
2022-08-05T21:05:53.941Z,24.80
2022-08-05T21:08:28.140Z,24.80
2022-08-05T21:11:15.174Z,24.60
2022-08-05T21:14:35.088Z,24.40
2022-08-05T21:17:05.267Z,24.30
2022-08-05T21:19:47.422Z,24.30
2022-08-05T21:22:21.569Z,24.30
2022-08-05T21:24:52.390Z,24.30
2022-08-05T21:27:24.921Z,24.30
2022-08-05T21:29:52.413Z,24.10
2022-08-05T21:32:20.874Z,24.10
2022-08-05T21:35:06.739Z,24.20
2022-08-05T21:37:47.191Z,24.30
2022-08-05T21:40:14.284Z,24.40
2022-08-05T21:42:44.788Z,24.30
2022-08-05T21:45:14.276Z,24.20
2022-08-05T21:47:56.287Z,23.90
2022-08-05T21:50:25.139Z,23.60
2022-08-05T21:52:51.697Z,23.40
2022-08-05T21:55:21.603Z,23.40
2022-08-05T21:58:31.956Z,23.40
2022-08-05T22:00:59.820Z,23.20
2022-08-05T22:03:48.560Z,23.10
2022-08-05T22:06:23.154Z,23.00
2022-08-05T22:09:13.762Z,22.90
2022-08-05T22:11:43.003Z,22.80
2022-08-05T22:14:33.885Z,22.70
2022-08-05T22:17:05.390Z,22.60
2022-08-05T22:20:03.164Z,22.60
2022-08-05T22:22:59.132Z,22.60
2022-08-05T22:26:09.833Z,22.60
2022-08-05T22:28:38.584Z,22.50
2022-08-05T22:31:05.992Z,22.50
2022-08-05T22:33:57.621Z,22.40
2022-08-05T22:36:27.400Z,22.50
2022-08-05T22:38:55.586Z,22.80
2022-08-05T22:42:05.058Z,22.80
2022-08-05T22:44:41.078Z,23.00
2022-08-05T22:47:29.986Z,23.10
2022-08-05T22:50:20.079Z,23.10
2022-08-05T22:52:52.758Z,22.90
2022-08-05T22:55:21.732Z,22.70
2022-08-05T22:57:52.730Z,22.50
2022-08-05T23:00:21.655Z,22.20
2022-08-05T23:02:51.253Z,22.20
2022-08-05T23:05:18.579Z,22.20
2022-08-05T23:07:48.885Z,22.30
2022-08-05T23:10:20.982Z,22.30
2022-08-05T23:12:55.046Z,22.30
2022-08-05T23:15:26.885Z,22.40
2022-08-05T23:18:01.105Z,22.40
2022-08-05T23:20:31.491Z,22.50
2022-08-05T23:22:59.130Z,22.30
2022-08-05T23:25:51.955Z,22.20
2022-08-05T23:28:24.148Z,22.20
2022-08-05T23:30:56.673Z,22.20
2022-08-05T23:34:04.699Z,22.20
2022-08-05T23:36:39.803Z,22.20
2022-08-05T23:39:17.219Z,22.10
2022-08-05T23:41:50.971Z,21.80
2022-08-05T23:44:19.806Z,21.50
2022-08-05T23:46:51.813Z,21.40
2022-08-05T23:49:23.902Z,21.40
2022-08-05T23:52:18.717Z,21.30
2022-08-05T23:54:48.494Z,21.20
2022-08-05T23:57:15.169Z,21.10
